Time;durP1;ratioP1;P1;durP2;ratioP2;P2;SDS_P1;SDS_P2;PMS_P1;PMS_P2;Temp;Humidity;BMP_temperature;BMP_pressure;BME280_temperature;BME280_humidity;BME280_pressure;Samples;Min_cycle;Max_cycle;Signal;HPM_P1;HPM_P2
2022/06/25 00:02:07;;;;;;;11.60;10.90;;;16.20;99.90;;;;;;4882829;29;20306;-81
2022/06/25 00:07:19;;;;;;;11.40;10.70;;;16.10;99.90;;;;;;4876841;29;20348;-81
2022/06/25 00:09:46;;;;;;;10.93;10.33;;;16.00;99.90;;;;;;4882731;29;20687;-81
2022/06/25 00:14:59;;;;;;;10.80;10.20;;;15.90;99.90;;;;;;4882044;29;20216;-81
2022/06/25 00:17:26;;;;;;;11.60;10.80;;;15.80;99.90;;;;;;4882677;29;20208;-81
2022/06/25 00:19:54;;;;;;;11.07;10.33;;;15.80;99.90;;;;;;4899726;29;20197;-81
2022/06/25 00:22:21;;;;;;;10.77;10.17;;;15.70;99.90;;;;;;4879664;29;20229;-81
2022/06/25 00:24:48;;;;;;;11.33;10.50;;;15.70;99.90;;;;;;4896392;29;20240;-81
2022/06/25 00:27:15;;;;;;;10.90;10.30;;;15.60;99.90;;;;;;4882610;29;20212;-81
2022/06/25 00:29:41;;;;;;;11.10;10.50;;;15.60;99.90;;;;;;4882447;29;20212;-81
2022/06/25 00:32:10;;;;;;;11.43;10.73;;;15.60;99.90;;;;;;4881860;29;20231;-81
2022/06/25 00:34:38;;;;;;;10.63;10.03;;;15.60;99.90;;;;;;4899292;29;20256;-81
2022/06/25 00:37:07;;;;;;;11.30;10.50;;;15.50;99.90;;;;;;4899112;29;20223;-81
2022/06/25 00:39:34;;;;;;;10.90;10.20;;;15.50;99.90;;;;;;4900718;29;20293;-82
2022/06/25 00:42:03;;;;;;;11.13;10.53;;;15.40;99.90;;;;;;4898901;29;20223;-81
2022/06/25 00:44:30;;;;;;;11.47;10.67;;;15.40;99.90;;;;;;4882131;29;20567;-81
2022/06/25 00:46:58;;;;;;;11.47;10.73;;;15.30;99.90;;;;;;4899242;29;20225;-81
2022/06/25 00:49:25;;;;;;;11.17;10.47;;;15.30;99.90;;;;;;4899297;29;20194;-81
2022/06/25 00:51:52;;;;;;;11.17;10.50;;;15.20;99.90;;;;;;4882091;29;20745;-81
2022/06/25 00:54:25;;;;;;;11.80;11.10;;;15.20;99.90;;;;;;4882051;29;20237;-81
2022/06/25 00:56:52;;;;;;;11.70;11.00;;;15.20;99.90;;;;;;4882104;29;20250;-81
2022/06/25 00:59:24;;;;;;;11.63;10.93;;;15.20;99.90;;;;;;4898976;29;20200;-81
2022/06/25 01:01:51;;;;;;;11.40;10.70;;;15.10;99.90;;;;;;4882151;29;20301;-81
2022/06/25 01:04:18;;;;;;;11.80;11.10;;;15.10;99.90;;;;;;4898658;29;20205;-81
2022/06/25 01:06:45;;;;;;;12.07;11.37;;;15.10;99.90;;;;;;4882033;29;20584;-81
2022/06/25 01:09:12;;;;;;;12.10;11.40;;;15.10;99.90;;;;;;4882069;29;20212;-81
2022/06/25 01:11:40;;;;;;;12.10;11.30;;;15.10;99.90;;;;;;4881692;29;20205;-82
2022/06/25 01:14:08;;;;;;;11.80;11.10;;;15.00;99.90;;;;;;4881606;29;20202;-81
2022/06/25 01:16:36;;;;;;;11.67;10.97;;;15.00;99.90;;;;;;4881670;29;20743;-81
2022/06/25 01:19:07;;;;;;;11.70;11.00;;;14.90;99.90;;;;;;4881660;29;20205;-81
2022/06/25 01:21:35;;;;;;;11.47;10.87;;;14.90;99.90;;;;;;4877140;29;20237;-81
2022/06/25 01:24:05;;;;;;;11.53;10.83;;;14.90;99.90;;;;;;4881292;29;20201;-81
2022/06/25 01:26:34;;;;;;;11.57;10.97;;;15.00;99.90;;;;;;4881721;29;20207;-81
2022/06/25 01:29:01;;;;;;;11.67;10.97;;;14.90;99.90;;;;;;4898504;29;20282;-82
2022/06/25 01:31:28;;;;;;;11.77;11.07;;;14.90;99.90;;;;;;4881577;29;20219;-81
2022/06/25 01:33:57;;;;;;;12.00;11.30;;;14.90;99.90;;;;;;4898041;29;20207;-81
2022/06/25 01:36:24;;;;;;;11.87;11.17;;;14.90;99.90;;;;;;4881334;29;20851;-81
2022/06/25 01:38:51;;;;;;;11.83;11.00;;;14.90;99.90;;;;;;4881325;29;20774;-81
2022/06/25 01:41:19;;;;;;;11.50;10.70;;;14.90;99.90;;;;;;4898119;29;20256;-79
2022/06/25 01:43:47;;;;;;;12.00;11.30;;;14.90;99.90;;;;;;4896939;29;20220;-79
2022/06/25 01:46:14;;;;;;;12.03;11.33;;;14.80;99.90;;;;;;4881343;29;20292;-79
2022/06/25 01:48:41;;;;;;;11.67;10.97;;;14.80;99.90;;;;;;4880982;29;20219;-79
2022/06/25 01:51:08;;;;;;;11.60;10.90;;;14.80;99.90;;;;;;4897819;29;20196;-79
2022/06/25 01:53:35;;;;;;;11.40;10.80;;;14.80;99.90;;;;;;4907900;29;20308;-79
2022/06/25 01:56:03;;;;;;;12.50;11.73;;;14.70;99.90;;;;;;4912302;29;20717;-80
2022/06/25 01:58:31;;;;;;;12.70;11.90;;;14.70;99.90;;;;;;4880667;29;20700;-80
2022/06/25 02:00:59;;;;;;;13.40;12.60;;;14.70;99.90;;;;;;4880795;29;20635;-79
2022/06/25 02:03:26;;;;;;;13.50;12.70;;;14.70;99.90;;;;;;4896635;29;20221;-79
2022/06/25 02:05:59;;;;;;;12.60;11.90;;;14.70;99.90;;;;;;4880519;29;20602;-80
2022/06/25 02:08:28;;;;;;;12.40;11.70;;;14.70;99.90;;;;;;4881040;29;20252;-79
2022/06/25 02:10:56;;;;;;;12.70;11.90;;;14.60;99.90;;;;;;4880944;29;20265;-79
2022/06/25 02:13:23;;;;;;;12.10;11.40;;;14.60;99.90;;;;;;4911921;29;20229;-79
2022/06/25 02:15:51;;;;;;;12.13;11.40;;;14.60;99.90;;;;;;4912262;29;20224;-80
2022/06/25 02:18:19;;;;;;;11.97;11.27;;;14.60;99.90;;;;;;4897139;29;20264;-79
2022/06/25 02:20:46;;;;;;;11.77;11.07;;;14.60;99.90;;;;;;4880431;29;20206;-81
2022/06/25 02:23:16;;;;;;;11.63;10.93;;;14.60;99.90;;;;;;4880677;29;20229;-80
2022/06/25 02:25:43;;;;;;;11.73;11.03;;;14.60;99.90;;;;;;4897592;29;20218;-80
2022/06/25 02:28:11;;;;;;;12.10;11.40;;;14.50;99.90;;;;;;4893930;29;20266;-79
2022/06/25 02:30:38;;;;;;;12.83;12.03;;;14.50;99.90;;;;;;4874570;29;20299;-80
2022/06/25 02:33:11;;;;;;;12.10;11.40;;;14.50;99.90;;;;;;4880508;29;20230;-79
2022/06/25 02:35:39;;;;;;;11.97;11.27;;;14.60;99.90;;;;;;4880484;29;20288;-79
2022/06/25 02:38:06;;;;;;;11.50;10.90;;;14.60;99.90;;;;;;4880353;29;20197;-79
2022/06/25 02:40:33;;;;;;;11.13;10.53;;;14.50;99.90;;;;;;4880728;29;20205;-81
2022/06/25 02:43:01;;;;;;;11.53;10.77;;;14.50;99.90;;;;;;4881444;29;20229;-81
2022/06/25 02:45:31;;;;;;;11.37;10.77;;;14.50;99.90;;;;;;4880509;29;20268;-81
2022/06/25 02:47:58;;;;;;;11.77;10.93;;;14.50;99.90;;;;;;4896788;29;20205;-80
2022/06/25 02:50:28;;;;;;;11.27;10.67;;;14.40;99.90;;;;;;4878456;29;20205;-80
2022/06/25 02:52:55;;;;;;;11.57;10.70;;;14.40;99.90;;;;;;4882062;29;20229;-79
2022/06/25 02:58:54;;;;;;;12.07;11.10;;;14.30;99.90;;;;;;4881505;29;20205;-80
2022/06/25 03:00:57;;;;;;;12.50;11.80;;;14.30;99.90;;;;;;4894224;29;20237;-81
2022/06/25 03:03:24;;;;;;;12.47;11.70;;;14.20;99.90;;;;;;4877504;29;21032;-81
2022/06/25 03:05:53;;;;;;;11.80;11.20;;;14.10;99.90;;;;;;4878510;29;20690;-81
2022/06/25 03:08:21;;;;;;;12.57;11.87;;;14.10;99.90;;;;;;4871958;29;20215;-79
2022/06/25 03:10:48;;;;;;;11.97;11.20;;;14.10;99.90;;;;;;4879570;29;20212;-80
2022/06/25 03:13:15;;;;;;;12.90;12.10;;;14.20;99.90;;;;;;4880706;29;20290;-79
2022/06/25 03:15:42;;;;;;;12.70;12.00;;;14.10;99.90;;;;;;4911111;29;20295;-79
2022/06/25 03:18:11;;;;;;;12.50;11.80;;;14.10;99.90;;;;;;4895032;29;20366;-79
2022/06/25 03:20:40;;;;;;;12.60;11.90;;;14.10;99.90;;;;;;4896711;29;20213;-79
2022/06/25 03:23:10;;;;;;;12.97;12.27;;;14.10;99.90;;;;;;4910009;29;20221;-80
2022/06/25 03:25:37;;;;;;;12.60;11.90;;;14.10;99.90;;;;;;4880788;29;20212;-80
2022/06/25 03:28:05;;;;;;;13.03;12.23;;;14.10;99.90;;;;;;4890731;29;20211;-78
2022/06/25 03:30:36;;;;;;;13.27;12.43;;;14.10;99.90;;;;;;4880194;29;20457;-78
2022/06/25 03:33:04;;;;;;;12.47;11.67;;;14.10;99.90;;;;;;4879335;29;20718;-81
2022/06/25 03:35:39;;;;;;;13.00;12.30;;;14.10;99.90;;;;;;4877495;29;20215;-81
2022/06/25 03:38:14;;;;;;;12.93;12.23;;;14.10;99.90;;;;;;4877670;29;20227;-81
2022/06/25 03:40:43;;;;;;;12.67;11.97;;;14.10;99.90;;;;;;4879316;29;20686;-81
2022/06/25 03:43:12;;;;;;;13.17;12.37;;;14.10;99.90;;;;;;4886223;29;20267;-81
2022/06/25 03:45:41;;;;;;;13.13;12.33;;;14.10;99.90;;;;;;4910055;29;20244;-81
2022/06/25 03:48:08;;;;;;;12.97;12.27;;;14.10;99.90;;;;;;4876417;29;20225;-81
2022/06/25 03:50:48;;;;;;;12.90;12.20;;;14.10;99.90;;;;;;4879953;29;20666;-81
2022/06/25 03:53:16;;;;;;;12.77;12.07;;;14.20;99.90;;;;;;4895992;29;20244;-81
2022/06/25 03:55:44;;;;;;;13.50;12.60;;;14.20;99.90;;;;;;4879664;29;20582;-81
2022/06/25 03:58:11;;;;;;;12.80;12.10;;;14.20;99.90;;;;;;4879401;29;20233;-81
2022/06/25 04:00:39;;;;;;;13.20;12.50;;;14.20;99.90;;;;;;4879934;29;20703;-81
2022/06/25 04:03:06;;;;;;;12.90;12.20;;;14.30;99.90;;;;;;4879437;29;20667;-81
2022/06/25 04:05:52;;;;;;;12.57;11.87;;;14.30;99.90;;;;;;4879618;29;20204;-81
2022/06/25 04:08:42;;;;;;;12.63;11.93;;;14.40;99.90;;;;;;4879456;29;20572;-80
2022/06/25 04:11:13;;;;;;;12.50;11.80;;;14.40;99.90;;;;;;4894489;29;20227;-82
2022/06/25 04:13:45;;;;;;;12.63;11.93;;;14.40;99.90;;;;;;4882801;29;20233;-81
2022/06/25 04:16:13;;;;;;;11.80;11.20;;;14.50;99.90;;;;;;4882807;29;20203;-81
2022/06/25 04:18:40;;;;;;;12.00;11.40;;;14.50;99.90;;;;;;4883135;29;20204;-81
2022/06/25 04:21:09;;;;;;;12.60;11.90;;;14.60;99.90;;;;;;4882901;29;20213;-80
2022/06/25 04:23:36;;;;;;;12.13;11.50;;;14.60;99.90;;;;;;4882697;29;20711;-81
2022/06/25 04:26:04;;;;;;;12.10;11.40;;;14.70;99.90;;;;;;4882153;29;20212;-81
2022/06/25 04:31:32;;;;;;;12.23;11.53;;;14.90;99.90;;;;;;4877885;29;20219;-81
2022/06/25 04:33:59;;;;;;;12.20;11.60;;;15.00;99.90;;;;;;4899055;29;20679;-81
2022/06/25 04:36:27;;;;;;;11.67;11.07;;;15.10;99.90;;;;;;4882445;29;20707;-81
2022/06/25 04:38:56;;;;;;;10.50;9.90;;;15.20;99.90;;;;;;4882792;29;20202;-81
2022/06/25 04:41:24;;;;;;;11.77;11.07;;;15.40;99.90;;;;;;4882708;29;20213;-81
2022/06/25 04:43:55;;;;;;;3.37;3.17;;;15.50;99.90;;;;;;4881528;29;20212;-80
2022/06/25 04:46:27;;;;;;;3.67;3.37;;;15.70;99.90;;;;;;4882531;29;20207;-81
2022/06/25 04:48:55;;;;;;;3.93;3.40;;;15.90;99.90;;;;;;4880566;29;20678;-81
2022/06/25 04:51:24;;;;;;;3.30;3.10;;;16.10;99.90;;;;;;4882395;29;20211;-81
2022/06/25 04:53:58;;;;;;;6.57;6.17;;;16.30;99.90;;;;;;4881814;29;20234;-81
2022/06/25 04:56:36;;;;;;;10.20;9.60;;;16.50;99.90;;;;;;4899289;29;20323;-82
2022/06/25 04:59:04;;;;;;;11.57;10.97;;;16.70;99.90;;;;;;4913754;29;20200;-81
2022/06/25 05:01:50;;;;;;;10.60;9.90;;;16.80;99.90;;;;;;4899399;29;20218;-80
2022/06/25 05:04:17;;;;;;;8.47;7.97;;;16.90;99.90;;;;;;4881550;29;20204;-81
2022/06/25 05:06:44;;;;;;;11.13;10.43;;;17.00;99.90;;;;;;4882244;29;20302;-81
2022/06/25 05:09:11;;;;;;;12.50;11.80;;;17.20;99.90;;;;;;4898617;29;20282;-81
2022/06/25 05:11:40;;;;;;;7.40;6.80;;;17.30;99.90;;;;;;4881733;29;20781;-81
2022/06/25 05:14:07;;;;;;;9.97;9.27;;;17.40;99.90;;;;;;4912945;29;20232;-82
2022/06/25 05:16:34;;;;;;;8.50;8.00;;;17.60;99.90;;;;;;4881629;29;20211;-81
2022/06/25 05:19:02;;;;;;;8.30;7.60;;;17.90;99.90;;;;;;4912760;29;20218;-81
2022/06/25 05:21:31;;;;;;;12.10;11.47;;;18.20;99.90;;;;;;4882453;29;20707;-81
2022/06/25 05:24:01;;;;;;;9.40;8.70;;;18.30;99.90;;;;;;4880733;29;20210;-81
2022/06/25 05:26:28;;;;;;;12.47;11.73;;;18.30;99.90;;;;;;4881533;29;20237;-81
2022/06/25 05:28:57;;;;;;;11.87;11.27;;;18.20;99.90;;;;;;4881498;29;20690;-81
2022/06/25 05:31:25;;;;;;;11.70;11.10;;;18.20;99.90;;;;;;4881216;29;20204;-81
2022/06/25 05:33:54;;;;;;;10.90;10.30;;;18.10;99.90;;;;;;4880288;29;20733;-80
2022/06/25 05:36:21;;;;;;;11.47;10.77;;;18.20;99.90;;;;;;4881415;29;20206;-82
2022/06/25 05:38:47;;;;;;;3.37;3.13;;;18.40;99.90;;;;;;4889240;29;20228;-80
2022/06/25 05:41:14;;;;;;;5.23;4.93;;;18.70;99.90;;;;;;4882097;29;20258;-82
2022/06/25 05:43:41;;;;;;;2.70;2.60;;;19.30;99.90;;;;;;4881247;29;20223;-82
2022/06/25 05:46:09;;;;;;;8.73;7.90;;;20.00;99.90;;;;;;4897807;29;20196;-82
2022/06/25 05:48:36;;;;;;;4.17;3.97;;;20.90;99.90;;;;;;4882421;29;20220;-82
2022/06/25 05:51:03;;;;;;;10.07;9.43;;;21.60;99.90;;;;;;4897903;29;20200;-82
2022/06/25 05:53:30;;;;;;;6.27;5.93;;;22.10;99.90;;;;;;4897298;29;20225;-82
2022/06/25 05:55:57;;;;;;;3.33;2.70;;;22.50;99.90;;;;;;4896860;29;20232;-81
2022/06/25 05:58:23;;;;;;;10.60;9.90;;;22.90;99.90;;;;;;4879845;29;20224;-82
2022/06/25 06:00:50;;;;;;;8.27;7.77;;;23.30;99.90;;;;;;4897743;29;20682;-82
2022/06/25 06:03:18;;;;;;;3.10;2.90;;;23.50;99.90;;;;;;4880425;29;20224;-82
2022/06/25 06:05:45;;;;;;;4.00;2.73;;;23.80;99.90;;;;;;4880539;29;20209;-81
2022/06/25 06:08:12;;;;;;;5.27;4.77;;;24.00;99.90;;;;;;4880217;29;20249;-82
2022/06/25 06:10:39;;;;;;;5.90;5.50;;;24.10;99.90;;;;;;4880982;29;20205;-82
2022/06/25 06:13:08;;;;;;;3.00;2.60;;;24.30;99.90;;;;;;4880323;29;20232;-83
2022/06/25 06:15:38;;;;;;;2.70;2.50;;;24.70;99.90;;;;;;4884264;29;20220;-85
2022/06/25 06:18:05;;;;;;;3.03;2.50;;;24.90;99.90;;;;;;4881498;29;20221;-82
2022/06/25 06:20:33;;;;;;;2.60;2.40;;;25.10;99.90;;;;;;4881192;29;20208;-83
2022/06/25 06:25:44;;;;;;;2.90;2.30;;;25.10;99.90;;;;;;4883041;29;20587;-78
2022/06/25 06:28:11;;;;;;;2.40;2.20;;;25.20;99.90;;;;;;4894319;29;20205;-81
2022/06/25 06:30:37;;;;;;;4.13;3.93;;;25.40;99.90;;;;;;4892945;29;20674;-81
2022/06/25 06:33:04;;;;;;;4.90;3.43;;;25.40;99.90;;;;;;4896914;29;20228;-81
2022/06/25 06:35:32;;;;;;;4.10;3.90;;;25.60;99.90;;;;;;4880018;29;20269;-82
2022/06/25 06:37:59;;;;;;;5.73;3.40;;;25.60;99.90;;;;;;4911539;29;20290;-81
2022/06/25 06:40:27;;;;;;;5.53;5.03;;;25.30;99.90;;;;;;4880017;29;20235;-81
2022/06/25 06:42:55;;;;;;;6.13;5.60;;;25.50;99.90;;;;;;4880017;29;20235;-81
2022/06/25 06:45:22;;;;;;;6.10;5.70;;;25.50;99.90;;;;;;4911809;29;20573;-82
2022/06/25 06:47:49;;;;;;;8.27;7.63;;;25.70;99.90;;;;;;4896817;29;20196;-81
2022/06/25 06:50:16;;;;;;;6.90;6.50;;;25.70;99.90;;;;;;4880373;29;20273;-81
2022/06/25 06:52:44;;;;;;;7.50;7.10;;;25.60;99.90;;;;;;4897164;29;20643;-81
2022/06/25 06:55:11;;;;;;;7.63;7.13;;;25.70;99.90;;;;;;4879840;29;20294;-82
2022/06/25 06:57:37;;;;;;;7.37;6.77;;;26.00;99.90;;;;;;4897001;29;20745;-82
2022/06/25 07:00:06;;;;;;;6.33;5.93;;;26.00;99.90;;;;;;4879491;29;20267;-81
2022/06/25 07:02:32;;;;;;;6.30;5.90;;;26.10;99.90;;;;;;4896611;29;20781;-82
2022/06/25 07:04:59;;;;;;;6.80;6.40;;;26.10;99.90;;;;;;4896440;29;20228;-82
2022/06/25 07:07:26;;;;;;;5.03;4.73;;;26.00;99.90;;;;;;4896576;29;20200;-83
2022/06/25 07:09:54;;;;;;;3.60;3.40;;;26.00;99.90;;;;;;4911125;29;20204;-81
2022/06/25 07:12:21;;;;;;;3.30;3.10;;;25.80;99.90;;;;;;4896476;29;20239;-82
2022/06/25 07:14:48;;;;;;;4.70;4.37;;;26.10;99.90;;;;;;4896646;29;20559;-81
2022/06/25 07:17:15;;;;;;;6.70;6.30;;;26.30;99.90;;;;;;4896623;29;20674;-82
2022/06/25 07:19:42;;;;;;;5.10;4.80;;;26.30;99.90;;;;;;4879933;29;20238;-82
2022/06/25 07:22:08;;;;;;;7.43;7.03;;;26.40;99.90;;;;;;4911593;29;20275;-82
2022/06/25 07:24:35;;;;;;;6.80;6.40;;;26.30;99.90;;;;;;4899045;29;20208;-81
2022/06/25 07:27:04;;;;;;;5.70;5.40;;;26.10;99.90;;;;;;4912357;29;20204;-82
2022/06/25 07:29:31;;;;;;;4.40;4.20;;;26.00;99.90;;;;;;4895578;29;20201;-81
2022/06/25 07:31:57;;;;;;;4.37;4.03;;;25.60;99.90;;;;;;4879769;29;20276;-81
2022/06/25 07:34:24;;;;;;;4.33;4.03;;;25.70;99.90;;;;;;4879294;29;20581;-81
2022/06/25 07:36:51;;;;;;;4.83;4.53;;;26.40;99.90;;;;;;4879668;29;20269;-81
2022/06/25 07:39:18;;;;;;;6.03;5.73;;;26.70;99.90;;;;;;4879947;29;20228;-81
2022/06/25 07:41:45;;;;;;;4.80;4.50;;;27.20;99.90;;;;;;4882788;29;20212;-81
2022/06/25 07:44:13;;;;;;;7.20;6.80;;;27.40;99.90;;;;;;4883774;29;20224;-81
2022/06/25 07:46:40;;;;;;;6.43;6.13;;;27.50;99.90;;;;;;4900075;29;20205;-81
2022/06/25 07:49:09;;;;;;;6.90;6.37;;;27.70;99.90;;;;;;4883583;29;20197;-81
2022/06/25 07:54:20;;;;;;;5.50;5.20;;;27.60;99.90;;;;;;4892465;29;20252;-81
2022/06/25 07:56:47;;;;;;;7.03;6.63;;;27.60;99.90;;;;;;4896787;29;20205;-81
2022/06/25 07:59:15;;;;;;;7.90;7.40;;;27.80;99.90;;;;;;4901820;29;20272;-82
2022/06/25 08:01:42;;;;;;;7.63;7.23;;;27.90;99.90;;;;;;4900718;29;20761;-81
2022/06/25 08:04:09;;;;;;;6.60;6.23;;;27.90;99.90;;;;;;4884570;29;20241;-81
2022/06/25 08:06:38;;;;;;;6.30;5.90;;;27.90;99.90;;;;;;4886671;29;20307;-81
2022/06/25 08:09:05;;;;;;;6.20;5.90;;;27.80;99.90;;;;;;4917698;29;20211;-81
2022/06/25 08:11:32;;;;;;;6.83;6.43;;;28.00;99.90;;;;;;4885731;29;20215;-82
2022/06/25 08:13:59;;;;;;;7.40;6.90;;;28.10;99.90;;;;;;4896494;29;20201;-82
2022/06/25 08:16:28;;;;;;;7.90;7.40;;;28.20;99.90;;;;;;4920090;29;20263;-86
2022/06/25 08:18:55;;;;;;;8.47;7.87;;;28.20;99.90;;;;;;4901844;29;20233;-80
2022/06/25 08:21:22;;;;;;;6.37;5.93;;;28.50;99.90;;;;;;4889715;29;20205;-80
2022/06/25 08:23:49;;;;;;;4.73;4.43;;;28.70;99.90;;;;;;4899968;29;20228;-80
2022/06/25 08:26:16;;;;;;;3.07;2.87;;;28.50;99.90;;;;;;4899278;29;20204;-80
2022/06/25 08:28:44;;;;;;;6.30;5.80;;;28.10;99.90;;;;;;4883062;29;20709;-80
2022/06/25 08:31:11;;;;;;;7.20;6.60;;;28.00;99.90;;;;;;4883362;29;20645;-80
2022/06/25 08:33:40;;;;;;;7.30;6.90;;;28.30;99.90;;;;;;4899837;29;20283;-80
2022/06/25 08:36:06;;;;;;;4.57;4.20;;;27.90;99.90;;;;;;4884722;29;20264;-81
2022/06/25 08:38:33;;;;;;;2.40;2.27;;;28.10;99.90;;;;;;4878903;29;20220;-80
2022/06/25 08:41:02;;;;;;;2.33;2.00;;;28.30;99.90;;;;;;4900299;29;20682;-80
2022/06/25 08:43:30;;;;;;;2.10;2.00;;;28.60;99.90;;;;;;4883321;29;20225;-80
2022/06/25 08:45:56;;;;;;;3.33;3.13;;;28.60;99.90;;;;;;4900446;29;20287;-80
2022/06/25 08:48:25;;;;;;;3.87;3.57;;;28.80;99.90;;;;;;4885472;29;20201;-80
2022/06/25 08:50:55;;;;;;;2.63;2.43;;;28.80;99.90;;;;;;4900661;29;20248;-82
2022/06/25 08:53:22;;;;;;;3.47;3.27;;;28.70;99.90;;;;;;4899522;29;20224;-81
2022/06/25 08:55:49;;;;;;;4.03;3.83;;;28.20;99.90;;;;;;4900004;29;20225;-80
2022/06/25 08:58:16;;;;;;;7.47;6.77;;;28.30;99.90;;;;;;4899991;29;20272;-80
2022/06/25 09:00:46;;;;;;;7.00;6.50;;;28.10;99.90;;;;;;4900574;29;20670;-80
2022/06/25 09:03:12;;;;;;;7.10;6.50;;;27.80;99.90;;;;;;4898270;29;20639;-80
2022/06/25 09:05:43;;;;;;;6.90;6.50;;;27.20;99.90;;;;;;4883016;29;20208;-80
2022/06/25 09:08:13;;;;;;;6.90;6.37;;;26.90;99.90;;;;;;4882877;29;20196;-80
2022/06/25 09:10:42;;;;;;;2.67;2.47;;;26.60;99.90;;;;;;4900704;29;20204;-80
2022/06/25 09:13:11;;;;;;;2.57;2.37;;;26.70;99.90;;;;;;4884145;29;20232;-81
2022/06/25 09:15:40;;;;;;;3.80;3.10;;;26.80;99.90;;;;;;4899953;29;20619;-80
2022/06/25 09:18:08;;;;;;;4.67;4.37;;;27.30;99.90;;;;;;4900429;29;20259;-80
2022/06/25 09:20:36;;;;;;;7.50;7.00;;;27.50;99.90;;;;;;4900346;29;20283;-80
2022/06/25 09:23:05;;;;;;;4.50;3.73;;;27.70;99.90;;;;;;4899939;29;20232;-80
2022/06/25 09:25:37;;;;;;;5.80;5.30;;;27.40;99.90;;;;;;4882295;29;20573;-80
2022/06/25 09:28:04;;;;;;;2.30;2.17;;;27.80;99.90;;;;;;4883066;29;20212;-80
2022/06/25 09:30:32;;;;;;;2.80;2.60;;;27.60;99.90;;;;;;4900223;29;20406;-80
2022/06/25 09:33:00;;;;;;;3.77;3.57;;;28.00;99.90;;;;;;4883829;29;20257;-80
2022/06/25 09:35:33;;;;;;;5.03;2.43;;;28.00;99.90;;;;;;4900120;29;20208;-80
2022/06/25 09:38:05;;;;;;;4.60;4.40;;;27.90;99.90;;;;;;4882952;29;20216;-80
2022/06/25 09:40:34;;;;;;;7.40;6.90;;;27.80;99.90;;;;;;4883389;29;20658;-80
2022/06/25 09:43:11;;;;;;;5.60;5.30;;;27.90;99.90;;;;;;4899504;29;20284;-80
2022/06/25 09:45:38;;;;;;;3.60;3.00;;;28.30;99.90;;;;;;4900024;29;20773;-80
2022/06/25 09:48:09;;;;;;;2.23;2.03;;;28.40;99.90;;;;;;4899221;29;20201;-80
2022/06/25 09:50:37;;;;;;;2.27;2.17;;;28.40;99.90;;;;;;4913441;29;20319;-81
2022/06/25 09:53:04;;;;;;;3.00;2.80;;;28.00;99.90;;;;;;4912075;29;20656;-82
2022/06/25 09:55:34;;;;;;;5.97;5.60;;;28.40;99.90;;;;;;4897688;29;20208;-81
2022/06/25 09:58:02;;;;;;;2.80;2.30;;;28.90;99.90;;;;;;4880884;29;20296;-83
2022/06/25 10:00:30;;;;;;;2.20;2.10;;;28.70;99.90;;;;;;4881789;29;20212;-81
2022/06/25 10:02:58;;;;;;;3.73;3.40;;;28.90;99.90;;;;;;4881536;29;20228;-83
2022/06/25 10:05:30;;;;;;;2.27;2.07;;;28.60;99.90;;;;;;4897324;29;20642;-85
2022/06/25 10:08:04;;;;;;;2.27;2.10;;;28.80;99.90;;;;;;4897990;29;20204;-83
2022/06/25 10:10:39;;;;;;;3.40;2.63;;;29.20;99.90;;;;;;4881345;29;20212;-83
2022/06/25 10:13:06;;;;;;;7.40;6.73;;;28.90;99.90;;;;;;4881207;29;20231;-82
2022/06/25 10:15:34;;;;;;;5.93;5.60;;;28.20;99.90;;;;;;4881487;29;20208;-82
2022/06/25 10:18:02;;;;;;;2.30;2.10;;;27.50;99.90;;;;;;4900625;29;20212;-82
2022/06/25 10:20:31;;;;;;;2.43;2.03;;;27.50;99.90;;;;;;4880547;29;20755;-83
2022/06/25 10:23:00;;;;;;;5.13;4.73;;;27.80;99.90;;;;;;4897312;29;20276;-83
2022/06/25 10:25:28;;;;;;;6.13;5.70;;;27.90;99.90;;;;;;4898734;29;20207;-82
2022/06/25 10:28:09;;;;;;;2.97;2.30;;;28.00;99.90;;;;;;4898604;29;20205;-82
2022/06/25 10:30:43;;;;;;;3.73;3.53;;;27.90;99.90;;;;;;4882176;29;20205;-82
2022/06/25 10:33:10;;;;;;;4.83;4.53;;;27.90;99.90;;;;;;4912923;29;20228;-83
2022/06/25 10:35:39;;;;;;;5.67;5.30;;;27.90;99.90;;;;;;4885876;29;20235;-83
2022/06/25 10:38:08;;;;;;;5.70;5.30;;;27.40;99.90;;;;;;4899262;29;20205;-82
2022/06/25 10:40:47;;;;;;;5.70;5.20;;;27.20;99.90;;;;;;4899369;29;20231;-83
2022/06/25 10:43:39;;;;;;;7.63;7.13;;;27.50;99.90;;;;;;4893195;29;20219;-82
2022/06/25 10:46:30;;;;;;;4.07;3.87;;;27.50;99.90;;;;;;4899177;29;20196;-82
2022/06/25 10:49:06;;;;;;;2.93;2.73;;;27.50;99.90;;;;;;4897626;29;20200;-81
2022/06/25 10:51:43;;;;;;;5.90;5.50;;;27.80;99.90;;;;;;4897446;29;20581;-81
2022/06/25 10:54:14;;;;;;;5.90;5.60;;;27.80;99.90;;;;;;4897755;29;20197;-81
2022/06/25 10:56:45;;;;;;;6.10;5.60;;;27.90;99.90;;;;;;4881262;29;20615;-81
2022/06/25 10:59:45;;;;;;;5.97;5.47;;;28.00;99.90;;;;;;4888447;29;20468;-82
2022/06/25 11:02:13;;;;;;;6.17;5.67;;;27.80;99.90;;;;;;4892011;29;20225;-81
2022/06/25 11:04:48;;;;;;;5.73;5.37;;;27.80;99.90;;;;;;4897734;29;20209;-80
2022/06/25 11:07:17;;;;;;;5.53;5.13;;;27.50;99.90;;;;;;4886760;29;20209;-81
2022/06/25 11:09:54;;;;;;;3.30;3.10;;;27.60;99.90;;;;;;4880149;29;20204;-82
2022/06/25 11:12:21;;;;;;;1.90;1.80;;;27.80;99.90;;;;;;4907304;29;20270;-81
2022/06/25 11:14:57;;;;;;;2.30;2.10;;;28.10;99.90;;;;;;4897919;29;20266;-81
2022/06/25 11:17:24;;;;;;;2.27;2.00;;;28.30;99.90;;;;;;4884793;29;20685;-81
2022/06/25 11:19:51;;;;;;;3.23;2.97;;;28.20;99.90;;;;;;4884039;29;20260;-81
2022/06/25 11:22:18;;;;;;;1.90;1.80;;;28.30;99.90;;;;;;4903016;29;20212;-82
2022/06/25 11:30:14;;;;;;;2.83;1.90;;;27.80;99.90;;;;;;4900868;29;20193;-81
2022/06/25 11:32:44;;;;;;;2.80;1.97;;;27.50;99.90;;;;;;4885363;29;20224;-81
2022/06/25 11:35:10;;;;;;;2.27;2.10;;;27.30;99.90;;;;;;4900825;29;20196;-81
2022/06/25 11:37:37;;;;;;;4.67;2.23;;;27.20;99.90;;;;;;4898300;29;20208;-81
2022/06/25 11:40:13;;;;;;;2.10;2.00;;;27.30;99.90;;;;;;4884869;29;20274;-81
2022/06/25 11:42:40;;;;;;;2.30;1.97;;;27.70;99.90;;;;;;4902322;29;20311;-81
2022/06/25 11:45:08;;;;;;;3.37;1.80;;;27.80;99.90;;;;;;4884757;29;20228;-80
2022/06/25 11:47:37;;;;;;;2.33;2.00;;;28.00;99.90;;;;;;4901564;29;20213;-81
2022/06/25 11:50:07;;;;;;;3.13;2.00;;;27.60;99.90;;;;;;4885195;29;20216;-81
2022/06/25 11:52:34;;;;;;;1.90;1.80;;;27.80;99.90;;;;;;4885241;29;20232;-84
2022/06/25 11:55:02;;;;;;;2.00;1.90;;;27.80;99.90;;;;;;4902157;29;20678;-82
2022/06/25 11:57:29;;;;;;;5.33;5.03;;;27.50;99.90;;;;;;4902557;29;20208;-82
2022/06/25 11:59:57;;;;;;;3.87;3.67;;;27.30;99.90;;;;;;4903254;29;20288;-81
2022/06/25 12:02:25;;;;;;;5.93;5.53;;;27.00;99.90;;;;;;4885942;29;20773;-82
2022/06/25 12:04:55;;;;;;;4.37;4.10;;;26.70;99.90;;;;;;4886589;29;20249;-81
2022/06/25 12:07:24;;;;;;;6.10;5.80;;;26.20;99.90;;;;;;4886229;29;20204;-81
2022/06/25 12:09:52;;;;;;;6.27;5.80;;;26.00;99.90;;;;;;4883844;29;20208;-81
2022/06/25 12:12:21;;;;;;;6.07;5.63;;;26.00;99.90;;;;;;4886173;29;20314;-81
2022/06/25 12:14:48;;;;;;;5.90;5.50;;;26.10;99.90;;;;;;4903327;29;20238;-82
2022/06/25 12:17:16;;;;;;;5.93;5.60;;;26.30;99.90;;;;;;4903477;29;20244;-81
2022/06/25 12:19:48;;;;;;;5.90;5.60;;;26.50;99.90;;;;;;4902710;29;20291;-82
2022/06/25 12:22:24;;;;;;;6.30;5.80;;;26.60;99.90;;;;;;4896330;29;20272;-82
2022/06/25 12:24:52;;;;;;;5.70;5.40;;;26.50;99.90;;;;;;4882889;29;20204;-81
2022/06/25 12:27:19;;;;;;;5.40;5.10;;;26.60;99.90;;;;;;4884476;29;20224;-81
2022/06/25 12:29:48;;;;;;;6.00;5.60;;;26.80;99.90;;;;;;4885551;29;20208;-81
2022/06/25 12:32:16;;;;;;;5.63;5.27;;;26.60;99.90;;;;;;4902356;29;20227;-81
2022/06/25 12:34:47;;;;;;;5.53;5.23;;;26.50;99.90;;;;;;4882888;29;20208;-81
2022/06/25 12:37:28;;;;;;;5.50;5.20;;;26.60;99.90;;;;;;4882639;29;20200;-81
2022/06/25 12:39:57;;;;;;;5.60;5.30;;;26.50;99.90;;;;;;4902140;29;20280;-81
2022/06/25 12:42:25;;;;;;;5.80;5.50;;;26.20;99.90;;;;;;4885194;29;20591;-82
2022/06/25 12:44:52;;;;;;;5.60;5.30;;;25.90;99.90;;;;;;4911466;29;20201;-82
2022/06/25 12:47:19;;;;;;;8.30;7.70;;;25.70;99.90;;;;;;4885850;29;20295;-82
2022/06/25 12:49:49;;;;;;;6.43;6.03;;;25.40;99.90;;;;;;4917356;29;20204;-81
2022/06/25 12:52:19;;;;;;;5.90;5.60;;;25.30;99.90;;;;;;4886731;29;20732;-81
2022/06/25 12:54:57;;;;;;;6.37;5.80;;;25.30;99.90;;;;;;4913215;29;20725;-81
2022/06/25 12:57:28;;;;;;;6.20;5.80;;;25.30;99.90;;;;;;4874957;29;20687;-81
2022/06/25 12:59:56;;;;;;;5.90;5.50;;;25.30;99.90;;;;;;4881835;29;20213;-80
2022/06/25 13:02:23;;;;;;;5.70;5.30;;;25.50;99.90;;;;;;4891561;29;20221;-80
2022/06/25 13:04:51;;;;;;;5.40;5.10;;;25.70;99.90;;;;;;4899007;29;20228;-80
2022/06/25 13:07:18;;;;;;;5.50;5.20;;;26.00;99.90;;;;;;4907146;29;20264;-81
2022/06/25 13:09:47;;;;;;;5.53;5.17;;;26.20;99.90;;;;;;4884788;29;20233;-82